createdAt,value
2022-08-30T00:02:19.962Z,12.73
2022-08-30T00:04:46.996Z,11.55
2022-08-30T00:07:13.728Z,12.23
2022-08-30T00:09:40.207Z,12.25
2022-08-30T00:12:06.873Z,10.88
2022-08-30T00:14:33.494Z,14.88
2022-08-30T00:16:59.935Z,8.88
2022-08-30T00:19:26.532Z,14.02
2022-08-30T00:21:53.097Z,12.25
2022-08-30T00:24:19.628Z,9.65
2022-08-30T00:26:46.116Z,9.30
2022-08-30T00:29:12.576Z,12.80
2022-08-30T00:31:39.073Z,12.32
2022-08-30T00:34:05.546Z,12.32
2022-08-30T00:36:32.039Z,9.95
2022-08-30T00:38:58.505Z,11.45
2022-08-30T00:41:25.070Z,9.93
2022-08-30T00:43:51.932Z,13.23
2022-08-30T00:46:18.567Z,12.10
2022-08-30T00:48:48.000Z,11.95
2022-08-30T00:51:16.030Z,9.05
2022-08-30T00:53:46.761Z,13.48
2022-08-30T00:56:13.849Z,8.48
2022-08-30T00:58:47.017Z,16.00
2022-08-30T01:01:16.267Z,18.00
2022-08-30T01:03:43.910Z,9.75
2022-08-30T01:06:11.507Z,10.30
2022-08-30T01:08:39.272Z,12.30
2022-08-30T01:11:06.735Z,17.85
2022-08-30T01:13:35.258Z,18.98
2022-08-30T01:16:02.561Z,9.82
2022-08-30T01:18:31.910Z,15.02
2022-08-30T01:21:19.925Z,9.98
2022-08-30T01:23:50.237Z,12.82
2022-08-30T01:26:19.800Z,11.32
2022-08-30T01:28:52.050Z,11.10
2022-08-30T01:31:19.571Z,18.00
2022-08-30T01:33:46.211Z,13.82
2022-08-30T01:36:14.471Z,10.60
2022-08-30T01:38:56.842Z,19.42
2022-08-30T01:41:27.603Z,13.02
2022-08-30T01:43:56.478Z,11.07
2022-08-30T01:46:26.785Z,12.15
2022-08-30T01:48:56.140Z,11.27
2022-08-30T01:51:25.493Z,15.10
2022-08-30T01:53:53.124Z,16.13
2022-08-30T01:56:20.276Z,15.95
2022-08-30T01:58:46.857Z,12.75
2022-08-30T02:01:19.757Z,11.23
2022-08-30T02:03:49.171Z,11.50
2022-08-30T02:06:19.847Z,13.32
2022-08-30T02:08:49.894Z,13.75
2022-08-30T02:11:19.189Z,12.02
2022-08-30T02:13:45.996Z,16.67
2022-08-30T02:16:16.987Z,16.52
2022-08-30T02:18:43.881Z,11.55
2022-08-30T02:21:13.089Z,11.15
2022-08-30T02:23:39.622Z,17.85
2022-08-30T02:26:06.120Z,10.55
2022-08-30T02:28:32.690Z,15.27
2022-08-30T02:30:59.426Z,9.98
2022-08-30T02:33:29.927Z,12.23
2022-08-30T02:35:56.464Z,11.18
2022-08-30T02:38:27.057Z,13.95
2022-08-30T02:40:53.588Z,11.80
2022-08-30T02:43:20.383Z,15.50
2022-08-30T02:45:46.913Z,10.40
2022-08-30T02:48:13.887Z,11.57
2022-08-30T02:50:46.448Z,14.60
2022-08-30T02:53:16.385Z,9.00
2022-08-30T02:55:45.696Z,10.75
2022-08-30T02:58:12.451Z,14.00
2022-08-30T03:00:39.656Z,16.98
2022-08-30T03:03:07.395Z,15.95
2022-08-30T03:05:34.665Z,8.57
2022-08-30T03:08:04.632Z,9.45
2022-08-30T03:10:31.863Z,13.88
2022-08-30T03:13:00.858Z,13.93
2022-08-30T03:15:27.591Z,10.00
2022-08-30T03:17:55.701Z,18.33
2022-08-30T03:20:22.735Z,16.42
2022-08-30T03:22:49.417Z,10.07
2022-08-30T03:25:16.307Z,11.25
2022-08-30T03:27:42.923Z,15.77
2022-08-30T03:30:10.005Z,17.05
2022-08-30T03:32:36.936Z,18.95
2022-08-30T03:35:03.971Z,13.35
2022-08-30T03:37:30.457Z,14.50
2022-08-30T03:39:57.393Z,14.13
2022-08-30T03:42:26.703Z,14.80
2022-08-30T03:44:54.157Z,15.63
2022-08-30T03:47:20.914Z,13.05
2022-08-30T03:49:47.447Z,12.82
2022-08-30T03:52:13.921Z,9.55
2022-08-30T03:54:40.494Z,11.68
2022-08-30T03:57:09.511Z,10.77
2022-08-30T03:59:46.197Z,14.60
2022-08-30T04:02:17.507Z,12.05
2022-08-30T04:04:44.020Z,12.43
2022-08-30T04:07:10.520Z,10.80
2022-08-30T04:09:37.042Z,17.02
2022-08-30T04:12:03.958Z,12.88
2022-08-30T04:14:30.460Z,10.02
2022-08-30T04:16:59.289Z,12.70
2022-08-30T04:19:25.782Z,12.02
2022-08-30T04:21:54.610Z,13.77
2022-08-30T04:24:21.118Z,11.75
2022-08-30T04:26:47.656Z,8.85
2022-08-30T04:29:17.697Z,13.73
2022-08-30T04:31:45.177Z,15.25
2022-08-30T04:34:15.216Z,12.52
2022-08-30T04:36:41.698Z,17.55
2022-08-30T04:39:17.822Z,15.82
2022-08-30T04:41:44.589Z,20.27
2022-08-30T04:44:19.100Z,13.40
2022-08-30T04:46:46.070Z,17.27
2022-08-30T04:49:12.665Z,20.90
2022-08-30T04:51:39.190Z,17.80
2022-08-30T04:54:05.782Z,16.13
2022-08-30T04:56:32.964Z,16.10
2022-08-30T04:59:02.154Z,15.60
2022-08-30T05:01:32.332Z,18.92
2022-08-30T05:04:11.693Z,13.88
2022-08-30T05:06:38.252Z,13.60
2022-08-30T05:09:04.729Z,15.55
2022-08-30T05:11:31.606Z,16.15
2022-08-30T05:14:00.940Z,15.38
2022-08-30T05:16:27.683Z,14.00
2022-08-30T05:18:56.669Z,15.35
2022-08-30T05:21:26.484Z,15.30
2022-08-30T05:23:58.037Z,10.60
2022-08-30T05:26:28.147Z,13.32
2022-08-30T05:28:54.866Z,14.32
2022-08-30T05:31:26.935Z,13.13
2022-08-30T05:33:54.698Z,10.07
2022-08-30T05:36:24.991Z,8.85
2022-08-30T05:38:54.230Z,8.68
2022-08-30T05:41:26.627Z,10.10
2022-08-30T05:43:56.119Z,9.23
2022-08-30T05:46:23.786Z,12.20
2022-08-30T05:48:51.227Z,17.63
2022-08-30T05:51:20.531Z,12.02
2022-08-30T05:53:48.315Z,14.00
2022-08-30T05:56:18.231Z,11.52
2022-08-30T05:58:45.299Z,12.32
2022-08-30T06:01:29.856Z,11.93
2022-08-30T06:04:03.955Z,11.55
2022-08-30T06:06:33.315Z,10.85
2022-08-30T06:08:59.869Z,12.68
2022-08-30T06:11:27.305Z,13.40
2022-08-30T06:13:56.691Z,11.15
2022-08-30T06:16:27.075Z,13.88
2022-08-30T06:18:55.050Z,18.08
2022-08-30T06:21:29.905Z,11.65
2022-08-30T06:23:57.750Z,16.75
2022-08-30T06:26:25.703Z,14.05
2022-08-30T06:28:52.718Z,11.52
2022-08-30T06:31:20.705Z,12.43
2022-08-30T06:33:47.776Z,17.27
2022-08-30T06:36:19.184Z,18.52
2022-08-30T06:38:50.287Z,15.18
2022-08-30T06:41:20.199Z,19.13
2022-08-30T06:43:49.211Z,14.43
2022-08-30T06:46:27.682Z,14.88
2022-08-30T06:48:57.014Z,16.40
2022-08-30T06:51:30.118Z,16.80
2022-08-30T06:53:57.574Z,14.75
2022-08-30T06:56:27.359Z,12.15
2022-08-30T06:58:54.402Z,16.58
2022-08-30T07:01:23.674Z,15.05
2022-08-30T07:03:51.110Z,15.45
2022-08-30T07:06:18.916Z,12.43
2022-08-30T07:08:46.807Z,20.75
2022-08-30T07:11:13.554Z,12.75
2022-08-30T07:13:40.051Z,11.00
2022-08-30T07:16:12.134Z,16.70
2022-08-30T07:18:50.908Z,15.65
2022-08-30T07:21:20.334Z,9.25
2022-08-30T07:23:53.418Z,11.40
2022-08-30T07:26:24.717Z,8.63
2022-08-30T07:28:56.118Z,9.55
2022-08-30T07:31:23.582Z,10.90
2022-08-30T07:33:50.160Z,10.48
2022-08-30T07:36:17.643Z,7.60
2022-08-30T07:38:49.032Z,9.82
2022-08-30T07:41:28.155Z,10.00
2022-08-30T07:43:55.304Z,10.57
2022-08-30T07:46:23.077Z,11.25
2022-08-30T07:48:50.133Z,8.07
2022-08-30T07:51:19.579Z,11.20
2022-08-30T07:53:46.526Z,7.82
2022-08-30T07:56:13.510Z,9.85
2022-08-30T07:58:40.153Z,7.68
2022-08-30T08:01:08.490Z,7.07
2022-08-30T08:03:35.405Z,10.27
2022-08-30T08:06:04.800Z,8.18
2022-08-30T08:08:31.690Z,7.13
2022-08-30T08:11:01.831Z,14.48
2022-08-30T08:13:28.629Z,6.40
2022-08-30T08:15:59.372Z,7.53
2022-08-30T08:18:25.876Z,8.00
2022-08-30T08:20:52.351Z,5.75
2022-08-30T08:23:21.740Z,9.85
2022-08-30T08:25:48.302Z,6.47
2022-08-30T08:28:14.802Z,9.90
2022-08-30T08:30:44.071Z,7.22
2022-08-30T08:33:14.225Z,6.55
2022-08-30T08:35:40.807Z,8.05
2022-08-30T08:38:10.108Z,8.30
2022-08-30T08:40:59.570Z,5.60
2022-08-30T08:43:27.036Z,8.57
2022-08-30T08:46:16.283Z,11.73
2022-08-30T08:48:59.914Z,6.63
2022-08-30T08:51:52.019Z,8.85
2022-08-30T08:54:33.701Z,11.45
2022-08-30T08:57:02.699Z,9.32
2022-08-30T08:59:29.357Z,10.77
2022-08-30T09:02:02.956Z,12.27
2022-08-30T09:04:37.674Z,16.05
2022-08-30T09:07:11.972Z,10.40
2022-08-30T09:09:40.968Z,7.88
2022-08-30T09:12:10.170Z,11.50
2022-08-30T09:14:44.242Z,7.85
2022-08-30T09:17:18.373Z,6.93
2022-08-30T09:19:57.035Z,5.28
2022-08-30T09:22:39.438Z,9.63
2022-08-30T09:25:22.239Z,8.23
2022-08-30T09:27:51.840Z,7.85
2022-08-30T09:30:29.268Z,7.10
2022-08-30T09:32:58.955Z,10.43
2022-08-30T09:35:46.679Z,7.95
2022-08-30T09:38:23.381Z,7.20
2022-08-30T09:40:52.856Z,5.97
2022-08-30T09:43:21.198Z,7.40
2022-08-30T09:46:00.023Z,3.78
2022-08-30T09:48:40.775Z,5.88
2022-08-30T09:51:10.440Z,9.50
2022-08-30T09:57:04.994Z,5.13
2022-08-30T09:59:57.968Z,5.75
2022-08-30T10:02:37.150Z,4.43
2022-08-30T10:05:09.752Z,3.28
2022-08-30T10:08:08.222Z,3.80
2022-08-30T10:10:45.217Z,7.85
2022-08-30T10:13:28.629Z,4.53
2022-08-30T10:16:07.531Z,4.85
2022-08-30T10:18:48.834Z,4.47
2022-08-30T10:21:26.496Z,3.92
2022-08-30T10:24:00.979Z,4.03
2022-08-30T10:26:36.872Z,5.40
2022-08-30T10:29:14.673Z,5.00
2022-08-30T10:31:59.329Z,5.03
2022-08-30T10:37:07.050Z,4.35
2022-08-30T10:39:40.981Z,10.25
2022-08-30T10:42:35.640Z,7.82
2022-08-30T10:45:13.002Z,6.93
2022-08-30T10:48:17.487Z,5.88
2022-08-30T10:50:53.550Z,7.65
2022-08-30T10:53:31.022Z,9.70
2022-08-30T10:56:21.207Z,6.78
2022-08-30T10:58:48.892Z,3.85
2022-08-30T11:01:28.818Z,6.32
2022-08-30T11:04:14.625Z,8.13
2022-08-30T11:06:57.231Z,13.50
2022-08-30T11:09:50.321Z,7.35
2022-08-30T11:12:23.235Z,4.47
2022-08-30T11:14:51.687Z,7.28
2022-08-30T11:17:27.046Z,5.30
2022-08-30T11:19:58.444Z,4.85
2022-08-30T11:22:28.023Z,4.20
2022-08-30T11:25:09.825Z,7.65
2022-08-30T11:27:45.886Z,4.32
2022-08-30T11:30:42.661Z,5.88
2022-08-30T11:33:15.811Z,4.78
2022-08-30T11:35:52.413Z,4.70
2022-08-30T11:38:25.478Z,3.85
2022-08-30T11:41:10.483Z,5.07
2022-08-30T11:43:42.875Z,4.50
2022-08-30T11:46:17.948Z,7.60
2022-08-30T11:48:54.475Z,7.13
2022-08-30T11:51:29.798Z,6.45
2022-08-30T11:54:21.502Z,10.80
2022-08-30T11:56:52.097Z,6.07
2022-08-30T11:59:48.512Z,8.15
2022-08-30T12:02:52.587Z,4.13
2022-08-30T12:08:21.059Z,4.93
2022-08-30T12:10:56.315Z,6.72
2022-08-30T12:13:35.204Z,6.95
2022-08-30T12:16:16.191Z,5.95
2022-08-30T12:18:46.970Z,6.43
2022-08-30T12:21:25.203Z,2.92
2022-08-30T12:24:10.056Z,5.05
2022-08-30T12:26:41.558Z,8.10
2022-08-30T12:29:11.003Z,7.57
2022-08-30T12:31:58.255Z,7.63
2022-08-30T12:34:56.641Z,4.15
2022-08-30T12:37:26.188Z,4.00
2022-08-30T12:40:18.980Z,3.67
2022-08-30T12:42:52.414Z,5.13
2022-08-30T12:45:21.981Z,5.80
2022-08-30T12:47:52.286Z,6.95
2022-08-30T12:50:26.859Z,4.88
2022-08-30T12:53:04.356Z,6.90
2022-08-30T12:55:34.545Z,7.88
2022-08-30T12:58:03.065Z,4.72
2022-08-30T13:00:32.362Z,7.97
2022-08-30T13:03:33.034Z,5.60
2022-08-30T13:06:00.140Z,5.47
2022-08-30T13:08:36.943Z,4.45
2022-08-30T13:11:09.084Z,5.05
2022-08-30T13:13:45.406Z,11.77
2022-08-30T13:16:18.621Z,4.63
2022-08-30T13:18:47.009Z,4.28
2022-08-30T13:21:30.627Z,4.60
2022-08-30T13:24:06.194Z,4.68
2022-08-30T13:26:37.448Z,8.25
2022-08-30T13:29:10.463Z,5.55
2022-08-30T13:31:37.394Z,4.63
2022-08-30T13:34:04.994Z,5.07
2022-08-30T13:36:37.480Z,8.07
2022-08-30T13:39:05.826Z,8.17
2022-08-30T13:41:34.126Z,7.03
2022-08-30T13:44:16.905Z,4.53
2022-08-30T13:46:54.433Z,6.03
2022-08-30T13:49:47.093Z,5.28
2022-08-30T13:52:21.528Z,4.93
2022-08-30T13:54:53.435Z,9.23
2022-08-30T14:00:17.643Z,11.13
2022-08-30T14:02:47.784Z,4.90
2022-08-30T14:05:46.879Z,4.97
2022-08-30T14:08:44.537Z,6.15
2022-08-30T14:10:56.789Z,5.13
2022-08-30T14:13:28.850Z,4.18
2022-08-30T14:18:44.379Z,6.03
2022-08-30T14:21:11.888Z,6.47
2022-08-30T14:23:38.444Z,6.75
2022-08-30T14:26:12.199Z,4.90
2022-08-30T14:28:38.850Z,4.72
2022-08-30T14:31:08.324Z,6.28
2022-08-30T14:33:35.726Z,6.28
2022-08-30T14:36:07.653Z,7.80
2022-08-30T14:38:39.284Z,5.20
2022-08-30T14:41:10.725Z,6.32
2022-08-30T14:43:39.624Z,7.00
2022-08-30T14:46:10.023Z,6.88
2022-08-30T14:48:38.270Z,10.77
2022-08-30T14:51:21.941Z,4.13
2022-08-30T14:53:52.998Z,4.85
2022-08-30T14:56:23.326Z,7.00
2022-08-30T14:58:53.079Z,6.25
2022-08-30T15:01:22.252Z,8.75
2022-08-30T15:03:51.570Z,5.25
2022-08-30T15:06:21.774Z,4.70
2022-08-30T15:08:48.897Z,4.35
2022-08-30T15:11:17.604Z,6.13
2022-08-30T15:13:47.674Z,6.00
2022-08-30T15:16:16.063Z,6.22
2022-08-30T15:18:42.818Z,5.43
2022-08-30T15:21:12.389Z,4.63
2022-08-30T15:23:39.566Z,4.05
2022-08-30T15:26:09.739Z,5.43
2022-08-30T15:28:36.843Z,6.18
2022-08-30T15:31:08.582Z,5.70
2022-08-30T15:33:39.230Z,4.57
2022-08-30T15:36:09.825Z,8.98
2022-08-30T15:38:36.964Z,5.55
2022-08-30T15:41:09.198Z,5.05
2022-08-30T15:43:36.175Z,4.60
2022-08-30T15:46:14.567Z,4.43
2022-08-30T15:48:45.486Z,7.72
2022-08-30T15:51:16.624Z,7.10
2022-08-30T15:53:47.488Z,4.07
2022-08-30T15:56:17.694Z,8.02
2022-08-30T15:58:45.390Z,6.88
2022-08-30T16:01:19.749Z,4.60
2022-08-30T16:03:49.497Z,9.82
2022-08-30T16:06:26.105Z,6.97
2022-08-30T16:08:52.703Z,5.88
2022-08-30T16:11:22.611Z,3.42
2022-08-30T16:13:50.556Z,6.13
2022-08-30T16:16:18.045Z,4.60
2022-08-30T16:18:45.217Z,6.70
2022-08-30T16:21:22.478Z,4.07
2022-08-30T16:23:49.621Z,5.75
2022-08-30T16:26:19.516Z,4.80
2022-08-30T16:28:47.391Z,4.85
2022-08-30T16:31:16.628Z,7.80
2022-08-30T16:33:44.851Z,6.10
2022-08-30T16:36:13.978Z,8.23
2022-08-30T16:38:43.560Z,4.22
2022-08-30T16:41:21.398Z,8.18
2022-08-30T16:43:53.290Z,5.30
2022-08-30T16:46:27.306Z,7.70
2022-08-30T16:48:58.427Z,11.10
2022-08-30T16:51:31.820Z,6.32
2022-08-30T16:54:01.343Z,10.23
2022-08-30T16:56:32.881Z,6.40
2022-08-30T16:59:02.998Z,6.35
2022-08-30T17:01:39.654Z,10.25
2022-08-30T17:04:08.135Z,6.80
2022-08-30T17:06:35.586Z,6.70
2022-08-30T17:09:03.567Z,7.43
2022-08-30T17:11:31.949Z,7.10
2022-08-30T17:14:01.595Z,5.88
2022-08-30T17:16:29.914Z,12.80
2022-08-30T17:18:59.579Z,7.82
2022-08-30T17:21:28.408Z,5.68
2022-08-30T17:24:01.367Z,7.55
2022-08-30T17:26:34.967Z,6.03
2022-08-30T17:29:02.241Z,5.30
2022-08-30T17:31:30.900Z,11.10
2022-08-30T17:34:03.570Z,6.78
2022-08-30T17:36:47.739Z,11.43
2022-08-30T17:39:15.946Z,8.90
2022-08-30T17:41:48.231Z,6.90
2022-08-30T17:44:16.957Z,13.05
2022-08-30T17:46:43.562Z,9.73
2022-08-30T17:49:10.620Z,11.18
2022-08-30T17:51:40.886Z,11.35
2022-08-30T17:54:08.954Z,7.30
2022-08-30T17:56:35.758Z,11.63
2022-08-30T17:59:04.929Z,7.70
2022-08-30T18:01:31.839Z,8.70
2022-08-30T18:04:01.517Z,8.73
2022-08-30T18:06:30.862Z,7.47
2022-08-30T18:08:57.576Z,11.38
2022-08-30T18:11:24.090Z,6.55
2022-08-30T18:13:50.614Z,10.60
2022-08-30T18:16:21.507Z,8.98
2022-08-30T18:18:57.450Z,9.15
2022-08-30T18:21:25.305Z,8.05
2022-08-30T18:23:52.415Z,9.68
2022-08-30T18:26:19.036Z,9.93
2022-08-30T18:28:51.574Z,12.93
2022-08-30T18:31:18.158Z,8.80
2022-08-30T18:33:45.038Z,7.05
2022-08-30T18:36:11.761Z,7.78
2022-08-30T18:38:39.616Z,12.23
2022-08-30T18:41:09.195Z,8.13
2022-08-30T18:43:38.193Z,11.68
2022-08-30T18:46:09.482Z,9.93
2022-08-30T18:48:37.015Z,8.57
2022-08-30T18:51:04.729Z,13.32
2022-08-30T18:53:32.259Z,9.80
2022-08-30T18:55:59.634Z,8.40
2022-08-30T18:58:26.181Z,12.25
2022-08-30T19:00:56.723Z,10.80
2022-08-30T19:03:23.762Z,10.52
2022-08-30T19:05:53.191Z,11.50
2022-08-30T19:08:22.045Z,10.50
2022-08-30T19:10:48.565Z,9.45
2022-08-30T19:13:15.179Z,8.30
2022-08-30T19:15:41.685Z,11.35
2022-08-30T19:18:16.628Z,12.02
2022-08-30T19:20:44.115Z,12.88
2022-08-30T19:23:10.702Z,9.90
2022-08-30T19:25:38.890Z,7.82
2022-08-30T19:28:05.649Z,9.60
2022-08-30T19:30:32.314Z,9.50
2022-08-30T19:32:59.157Z,7.63
2022-08-30T19:35:26.001Z,8.38
2022-08-30T19:37:54.842Z,11.50
2022-08-30T19:40:22.385Z,11.80
2022-08-30T19:42:49.816Z,10.65
2022-08-30T19:45:18.693Z,10.15
2022-08-30T19:47:48.128Z,11.75
2022-08-30T19:50:15.806Z,11.45
2022-08-30T19:52:42.888Z,11.70
2022-08-30T19:55:10.220Z,9.93
2022-08-30T19:57:36.775Z,14.20
2022-08-30T20:00:11.173Z,10.57
2022-08-30T20:02:38.454Z,16.60
2022-08-30T20:05:08.278Z,8.35
2022-08-30T20:07:36.649Z,9.38
2022-08-30T20:10:11.081Z,10.05
2022-08-30T20:12:39.727Z,10.23
2022-08-30T20:18:02.411Z,11.77
2022-08-30T20:20:30.105Z,11.40
2022-08-30T20:22:56.811Z,11.93
2022-08-30T20:25:24.140Z,11.13
2022-08-30T20:27:50.706Z,14.90
2022-08-30T20:30:17.684Z,13.38
2022-08-30T20:32:46.625Z,13.73
2022-08-30T20:35:15.279Z,14.48
2022-08-30T20:37:43.197Z,17.98
2022-08-30T20:40:15.049Z,10.30
2022-08-30T20:42:46.372Z,11.75
2022-08-30T20:45:17.750Z,9.52
2022-08-30T20:47:47.048Z,12.82
2022-08-30T20:50:16.328Z,10.55
2022-08-30T20:52:43.059Z,9.45
2022-08-30T20:55:11.443Z,9.88
2022-08-30T20:57:38.674Z,7.28
2022-08-30T21:00:12.326Z,11.27
2022-08-30T21:05:16.444Z,10.10
2022-08-30T21:07:44.527Z,10.25
2022-08-30T21:10:11.973Z,13.85
2022-08-30T21:12:39.329Z,9.80
2022-08-30T21:15:20.977Z,8.70
2022-08-30T21:17:53.622Z,13.65
2022-08-30T21:20:20.160Z,12.45
2022-08-30T21:22:49.010Z,12.02
2022-08-30T21:25:15.495Z,16.90
2022-08-30T21:27:43.677Z,13.18
2022-08-30T21:30:12.470Z,13.55
2022-08-30T21:32:39.058Z,13.00
2022-08-30T21:35:24.672Z,17.52
2022-08-30T21:37:53.149Z,9.65
2022-08-30T21:40:19.776Z,12.07
2022-08-30T21:42:46.291Z,10.93
2022-08-30T21:45:13.944Z,11.10
2022-08-30T21:47:40.436Z,13.07
2022-08-30T21:50:07.146Z,14.00
2022-08-30T21:52:37.308Z,11.40
2022-08-30T21:55:04.369Z,10.02
2022-08-30T21:57:31.234Z,13.52
2022-08-30T21:59:57.717Z,15.68
2022-08-30T22:02:24.340Z,13.55
2022-08-30T22:04:50.843Z,15.73
2022-08-30T22:07:17.373Z,12.70
2022-08-30T22:09:44.109Z,12.93
2022-08-30T22:12:13.802Z,10.45
2022-08-30T22:14:40.592Z,17.17
2022-08-30T22:17:07.163Z,14.50
2022-08-30T22:19:34.010Z,15.32
2022-08-30T22:22:01.731Z,10.55
2022-08-30T22:24:32.496Z,12.85
2022-08-30T22:27:00.706Z,11.23
2022-08-30T22:29:27.171Z,14.65
2022-08-30T22:31:54.235Z,18.20
2022-08-30T22:34:21.264Z,12.60
2022-08-30T22:36:47.787Z,10.35
2022-08-30T22:39:14.399Z,9.95
2022-08-30T22:41:44.492Z,12.48
2022-08-30T22:44:13.763Z,10.65
2022-08-30T22:46:40.422Z,16.42
2022-08-30T22:49:08.994Z,15.52
2022-08-30T22:51:36.179Z,10.52
2022-08-30T22:54:04.681Z,10.98
2022-08-30T22:56:32.896Z,15.13
2022-08-30T22:58:59.371Z,12.68
2022-08-30T23:01:29.578Z,9.52
2022-08-30T23:03:56.915Z,12.93
2022-08-30T23:06:24.055Z,11.20
2022-08-30T23:08:52.976Z,14.55
2022-08-30T23:11:19.811Z,10.48
2022-08-30T23:13:46.707Z,13.45
2022-08-30T23:16:14.643Z,9.40
2022-08-30T23:18:43.518Z,12.10
2022-08-30T23:21:14.636Z,11.23
2022-08-30T23:23:59.972Z,12.13
2022-08-30T23:26:45.428Z,9.50
2022-08-30T23:29:31.338Z,12.93
2022-08-30T23:32:16.534Z,9.73
2022-08-30T23:35:02.046Z,11.45
2022-08-30T23:37:47.263Z,18.25
2022-08-30T23:40:37.723Z,13.00
2022-08-30T23:43:23.001Z,11.80
2022-08-30T23:46:07.837Z,10.55
2022-08-30T23:48:53.166Z,10.13
2022-08-30T23:51:38.535Z,11.25
2022-08-30T23:54:24.879Z,10.50
2022-08-30T23:57:10.380Z,9.30
2022-08-30T23:59:56.257Z,12.73
